createdAt,value
2023-03-03T00:00:17.149Z,86.29
2023-03-03T00:05:17.034Z,87.52
2023-03-03T00:10:16.968Z,88.04
2023-03-03T00:15:16.941Z,88.70
2023-03-03T00:20:16.868Z,87.66
2023-03-03T00:25:16.822Z,88.35
2023-03-03T00:30:16.736Z,88.45
2023-03-03T00:35:16.732Z,87.48
2023-03-03T00:40:16.696Z,86.22
2023-03-03T00:45:16.570Z,87.73
2023-03-03T00:50:16.549Z,88.91
2023-03-03T00:55:16.480Z,87.68
2023-03-03T01:00:16.457Z,88.24
2023-03-03T01:05:16.376Z,87.99
2023-03-03T01:10:16.334Z,88.66
2023-03-03T01:15:16.290Z,88.20
2023-03-03T01:20:16.194Z,87.37
2023-03-03T01:25:16.174Z,87.58
2023-03-03T01:30:16.122Z,88.27
2023-03-03T01:35:16.078Z,87.23
2023-03-03T01:40:15.988Z,88.27
2023-03-03T01:45:15.977Z,88.14
2023-03-03T01:50:15.966Z,87.89
2023-03-03T01:55:15.888Z,88.24
2023-03-03T02:00:15.823Z,88.62
2023-03-03T02:05:15.710Z,87.16
2023-03-03T02:10:15.675Z,87.16
2023-03-03T02:15:15.632Z,88.58
2023-03-03T02:20:15.590Z,88.87
2023-03-03T02:25:15.518Z,89.39
2023-03-03T02:30:15.465Z,88.14
2023-03-03T02:35:15.407Z,88.20
2023-03-03T02:40:15.332Z,88.10
2023-03-03T02:45:15.385Z,88.42
2023-03-03T02:50:15.290Z,89.50
2023-03-03T02:55:15.276Z,88.20
2023-03-03T03:00:15.159Z,88.66
2023-03-03T03:05:15.040Z,89.50
2023-03-03T03:10:15.067Z,88.37
2023-03-03T03:15:23.832Z,87.93
2023-03-03T03:20:14.900Z,89.43
2023-03-03T03:25:14.863Z,90.47
2023-03-03T03:30:14.814Z,89.39
2023-03-03T03:35:14.765Z,89.25
2023-03-03T03:40:14.710Z,87.99
2023-03-03T03:45:14.673Z,88.39
2023-03-03T03:50:14.646Z,87.96
2023-03-03T03:55:14.570Z,89.43
2023-03-03T04:00:14.611Z,89.39
2023-03-03T04:05:14.538Z,88.91
2023-03-03T04:10:14.473Z,89.32
2023-03-03T04:15:14.404Z,88.81
2023-03-03T04:20:14.316Z,89.43
2023-03-03T04:25:14.261Z,89.01
2023-03-03T04:30:14.164Z,89.18
2023-03-03T04:35:14.131Z,88.60
2023-03-03T04:40:14.204Z,90.26
2023-03-03T04:45:14.110Z,88.60
2023-03-03T04:50:14.017Z,88.49
2023-03-03T04:55:13.932Z,88.49
2023-03-03T05:00:13.892Z,88.87
2023-03-03T05:05:13.824Z,88.91
2023-03-03T05:10:13.744Z,88.66
2023-03-03T05:15:13.694Z,88.60
2023-03-03T05:20:13.651Z,88.81
2023-03-03T05:25:13.588Z,89.26
2023-03-03T05:30:13.529Z,89.78
2023-03-03T05:35:14.569Z,90.52
2023-03-03T05:40:13.385Z,88.81
2023-03-03T05:45:13.424Z,90.52
2023-03-03T05:50:13.349Z,90.58
2023-03-03T05:55:13.270Z,90.20
2023-03-03T06:00:13.231Z,91.08
2023-03-03T06:05:13.214Z,90.26
2023-03-03T06:10:13.079Z,90.10
2023-03-03T06:15:13.083Z,89.89
2023-03-03T06:20:12.987Z,88.60
2023-03-03T06:25:13.180Z,88.29
2023-03-03T06:30:12.986Z,88.76
2023-03-03T06:35:12.883Z,88.45
2023-03-03T06:40:12.803Z,87.02
2023-03-03T06:45:12.761Z,87.37
2023-03-03T06:50:12.682Z,87.06
2023-03-03T06:55:12.582Z,87.02
2023-03-03T07:00:12.560Z,86.19
2023-03-03T07:05:12.620Z,87.12
2023-03-03T07:10:12.465Z,87.79
2023-03-03T07:15:12.411Z,87.99
2023-03-03T07:20:12.352Z,86.99
2023-03-03T07:25:12.307Z,87.27
2023-03-03T07:30:12.229Z,87.41
2023-03-03T07:35:12.257Z,87.73
2023-03-03T07:40:12.149Z,87.93
2023-03-03T07:45:12.115Z,87.41
2023-03-03T07:50:12.017Z,87.83
2023-03-03T07:55:11.981Z,87.76
2023-03-03T08:00:11.917Z,87.14
2023-03-03T08:05:12.083Z,87.20
2023-03-03T08:10:11.866Z,86.99
2023-03-03T08:15:11.761Z,86.47
2023-03-03T08:20:11.676Z,86.54
2023-03-03T08:25:11.791Z,86.79
2023-03-03T08:30:11.654Z,86.68
2023-03-03T08:35:11.516Z,86.79
2023-03-03T08:40:11.547Z,86.99
2023-03-03T08:45:11.521Z,86.79
2023-03-03T08:50:11.341Z,85.56
2023-03-03T08:55:11.342Z,85.56
2023-03-03T09:00:11.227Z,85.25
2023-03-03T09:05:11.198Z,86.16
2023-03-03T09:10:11.134Z,86.47
2023-03-03T09:15:11.067Z,86.16
2023-03-03T09:20:19.893Z,84.73
2023-03-03T09:25:10.926Z,84.27
2023-03-03T09:30:10.921Z,84.06
2023-03-03T09:35:10.847Z,83.03
2023-03-03T09:40:10.782Z,82.57
2023-03-03T09:45:10.748Z,83.51
2023-03-03T09:50:10.696Z,82.57
2023-03-03T09:55:10.622Z,80.94
2023-03-03T10:00:10.545Z,80.11
2023-03-03T10:05:11.995Z,79.94
2023-03-03T10:10:10.465Z,79.83
2023-03-03T10:15:10.397Z,78.51
2023-03-03T10:20:10.362Z,78.48
2023-03-03T10:25:10.318Z,79.90
2023-03-03T10:30:10.284Z,77.89
2023-03-03T10:35:10.340Z,78.65
2023-03-03T10:40:10.167Z,80.25
2023-03-03T10:45:14.280Z,80.52
2023-03-03T10:50:10.102Z,78.61
2023-03-03T10:55:10.015Z,78.68
2023-03-03T11:00:09.963Z,76.61
2023-03-03T11:05:09.874Z,77.23
2023-03-03T11:10:09.779Z,77.75
2023-03-03T11:15:09.831Z,77.23
2023-03-03T11:20:09.722Z,76.99
2023-03-03T11:25:09.662Z,74.84
2023-03-03T11:30:09.574Z,74.84
2023-03-03T11:35:09.534Z,74.63
2023-03-03T11:40:09.468Z,78.58
2023-03-03T11:45:09.420Z,77.09
2023-03-03T11:50:09.409Z,76.85
2023-03-03T11:55:09.321Z,77.61
2023-03-03T12:00:09.287Z,77.40
2023-03-03T12:05:09.169Z,75.81
2023-03-03T12:10:09.172Z,76.26
2023-03-03T12:15:09.092Z,75.78
2023-03-03T12:20:08.988Z,74.74
2023-03-03T12:25:09.004Z,74.81
2023-03-03T12:30:08.930Z,73.01
2023-03-03T12:35:08.927Z,72.46
2023-03-03T12:40:08.879Z,73.74
2023-03-03T12:45:08.773Z,72.67
2023-03-03T12:50:08.796Z,72.56
2023-03-03T12:55:08.654Z,73.19
2023-03-03T13:00:08.608Z,71.91
2023-03-03T13:05:08.557Z,73.22
2023-03-03T13:10:08.468Z,73.57
2023-03-03T13:15:08.376Z,73.74
2023-03-03T13:20:08.381Z,74.36
2023-03-03T13:25:08.296Z,72.91
2023-03-03T13:30:08.288Z,74.91
2023-03-03T13:35:08.185Z,73.74
2023-03-03T13:40:08.162Z,73.67
2023-03-03T13:45:08.136Z,72.19
2023-03-03T13:50:08.039Z,71.47
2023-03-03T13:55:07.986Z,70.87
2023-03-03T14:00:07.894Z,72.46
2023-03-03T14:05:07.883Z,70.95
2023-03-03T14:10:07.789Z,70.29
2023-03-03T14:15:07.874Z,71.56
2023-03-03T14:20:07.660Z,72.91
2023-03-03T14:25:07.625Z,71.43
2023-03-03T14:30:07.582Z,71.60
2023-03-03T14:35:07.549Z,72.15
2023-03-03T14:40:07.449Z,72.29
2023-03-03T14:45:14.568Z,71.91
2023-03-03T14:50:08.348Z,71.94
2023-03-03T14:55:07.257Z,73.11
2023-03-03T15:00:07.263Z,72.46
2023-03-03T15:05:07.253Z,72.56
2023-03-03T15:10:07.115Z,72.46
2023-03-03T15:15:09.475Z,73.19
2023-03-03T15:20:15.996Z,71.39
2023-03-03T15:25:07.113Z,72.25
2023-03-03T15:30:07.015Z,72.67
2023-03-03T15:35:07.053Z,72.77
2023-03-03T15:40:09.040Z,73.43
2023-03-03T15:45:06.821Z,73.39
2023-03-03T15:50:06.893Z,72.43
2023-03-03T15:55:06.838Z,72.98
2023-03-03T16:00:06.701Z,73.53
2023-03-03T16:05:06.556Z,72.53
2023-03-03T16:10:06.617Z,72.43
2023-03-03T16:15:06.542Z,72.33
2023-03-03T16:20:06.479Z,72.64
2023-03-03T16:25:06.407Z,72.53
2023-03-03T16:30:06.512Z,73.08
2023-03-03T16:35:06.318Z,72.64
2023-03-03T16:40:06.393Z,73.29
2023-03-03T16:45:06.335Z,72.53
2023-03-03T16:50:07.113Z,72.46
2023-03-03T16:55:06.108Z,73.22
2023-03-03T17:00:07.059Z,74.05
2023-03-03T17:05:06.063Z,76.50
2023-03-03T17:10:05.851Z,77.95
2023-03-03T17:15:05.832Z,78.09
2023-03-03T17:20:05.746Z,78.09
2023-03-03T17:25:05.836Z,78.65
2023-03-03T17:30:05.635Z,78.55
2023-03-03T17:35:05.590Z,78.78
2023-03-03T17:40:05.557Z,79.65
2023-03-03T17:45:05.460Z,79.34
2023-03-03T17:50:05.396Z,79.69
2023-03-03T17:55:05.451Z,79.72
2023-03-03T18:00:05.298Z,80.15
2023-03-03T18:05:05.217Z,80.29
2023-03-03T18:10:05.266Z,81.15
2023-03-03T18:15:05.133Z,81.46
2023-03-03T18:20:05.085Z,80.77
2023-03-03T18:25:05.041Z,81.29
2023-03-03T18:30:05.128Z,81.54
2023-03-03T18:35:05.997Z,82.34
2023-03-03T18:40:04.913Z,82.54
2023-03-03T18:45:04.883Z,82.96
2023-03-03T18:50:04.787Z,82.75
2023-03-03T18:55:04.729Z,82.30
2023-03-03T19:00:04.713Z,82.40
2023-03-03T19:05:04.727Z,82.92
2023-03-03T19:10:04.581Z,82.09
2023-03-03T19:15:04.561Z,83.30
2023-03-03T19:20:04.474Z,81.91
2023-03-03T19:25:04.417Z,81.70
2023-03-03T19:30:04.320Z,82.01
2023-03-03T19:35:04.305Z,81.46
2023-03-03T19:40:04.677Z,80.94
2023-03-03T19:45:04.364Z,80.73
2023-03-03T19:50:04.226Z,80.63
2023-03-03T19:55:04.234Z,80.42
2023-03-03T20:00:04.220Z,80.21
2023-03-03T20:05:04.159Z,80.21
2023-03-03T20:10:03.927Z,80.87
2023-03-03T20:15:03.893Z,80.11
2023-03-03T20:20:03.828Z,79.90
2023-03-03T20:25:03.786Z,80.21
2023-03-03T20:30:03.702Z,80.42
2023-03-03T20:35:03.676Z,79.97
2023-03-03T20:40:03.609Z,79.69
2023-03-03T20:45:03.621Z,80.21
2023-03-03T20:50:03.602Z,80.32
2023-03-03T20:55:03.602Z,79.65
2023-03-03T21:00:03.360Z,79.65
2023-03-03T21:05:03.403Z,80.21
2023-03-03T21:10:03.216Z,79.97
2023-03-03T21:15:03.202Z,79.55
2023-03-03T21:20:11.969Z,79.10
2023-03-03T21:25:03.221Z,79.97
2023-03-03T21:30:03.195Z,79.41
2023-03-03T21:35:02.948Z,79.51
2023-03-03T21:40:02.899Z,80.66
2023-03-03T21:45:02.932Z,79.93
2023-03-03T21:50:02.782Z,80.66
2023-03-03T21:55:02.715Z,79.93
2023-03-03T22:00:02.664Z,79.20
2023-03-03T22:05:02.791Z,79.61
2023-03-03T22:10:02.590Z,79.93
2023-03-03T22:15:02.501Z,79.72
2023-03-03T22:20:02.471Z,80.00
2023-03-03T22:25:02.413Z,80.52
2023-03-03T22:30:02.343Z,79.79
2023-03-03T22:35:02.430Z,80.31
2023-03-03T22:40:02.231Z,80.73
2023-03-03T22:45:02.209Z,81.10
2023-03-03T22:50:02.213Z,80.02
2023-03-03T22:55:02.108Z,79.27
2023-03-03T23:00:02.080Z,78.54
2023-03-03T23:05:02.046Z,78.23
2023-03-03T23:10:01.933Z,77.19
2023-03-03T23:15:01.890Z,77.92
2023-03-03T23:20:01.804Z,77.57
2023-03-03T23:25:01.746Z,76.61
2023-03-03T23:30:01.715Z,75.78
2023-03-03T23:35:01.660Z,75.36
2023-03-03T23:40:01.584Z,75.12
2023-03-03T23:45:01.565Z,74.46
2023-03-03T23:50:01.465Z,74.50
2023-03-03T23:55:01.428Z,73.64
